Time;durP1;ratioP1;P1;durP2;ratioP2;P2;SDS_P1;SDS_P2;PMS_P1;PMS_P2;Temp;Humidity;BMP_temperature;BMP_pressure;BME280_temperature;BME280_humidity;BME280_pressure;Samples;Min_cycle;Max_cycle;Signal;HPM_P1;HPM_P2
2023/09/22 00:02:25;;;;;;;8.18;1.50;;;20.50;91.40;;;;;;5060132;28;20060;-56
2023/09/22 00:04:51;;;;;;;7.53;1.45;;;20.50;91.40;;;;;;5027887;28;20029;-56
2023/09/22 00:07:17;;;;;;;5.88;1.70;;;20.50;91.30;;;;;;5059761;28;20034;-56
2023/09/22 00:09:43;;;;;;;8.85;1.98;;;20.50;91.30;;;;;;5028132;28;20037;-56
2023/09/22 00:12:08;;;;;;;6.70;1.85;;;20.50;91.30;;;;;;5026390;28;20041;-56
2023/09/22 00:14:35;;;;;;;8.48;1.80;;;20.50;91.20;;;;;;5026531;28;20053;-55
2023/09/22 00:17:01;;;;;;;6.55;1.52;;;20.50;91.20;;;;;;5043749;28;20101;-56
2023/09/22 00:19:27;;;;;;;8.07;1.75;;;20.50;91.30;;;;;;5028085;28;20042;-56
2023/09/22 00:21:55;;;;;;;5.47;1.50;;;20.40;91.30;;;;;;5027940;28;20030;-56
2023/09/22 00:24:21;;;;;;;4.13;1.63;;;20.40;91.30;;;;;;5058722;28;20057;-55
2023/09/22 00:26:47;;;;;;;3.92;1.25;;;20.40;91.40;;;;;;5059665;28;20030;-56
2023/09/22 00:29:12;;;;;;;6.82;1.35;;;20.40;91.40;;;;;;5027607;28;20050;-56
2023/09/22 00:31:38;;;;;;;6.55;1.42;;;20.40;91.40;;;;;;5027659;28;20105;-56
2023/09/22 00:34:03;;;;;;;10.38;1.48;;;20.40;91.40;;;;;;5059369;28;20037;-56
2023/09/22 00:36:29;;;;;;;6.78;1.35;;;20.30;91.40;;;;;;5059375;28;20500;-56
2023/09/22 00:38:55;;;;;;;9.75;1.40;;;20.40;91.40;;;;;;5059407;28;20044;-56
2023/09/22 00:41:20;;;;;;;7.22;1.50;;;20.30;91.40;;;;;;5027263;28;20473;-56
2023/09/22 00:43:46;;;;;;;5.80;1.30;;;20.40;91.40;;;;;;5042584;28;20033;-56
2023/09/22 00:46:12;;;;;;;5.72;1.23;;;20.30;91.40;;;;;;5059370;28;20030;-56
2023/09/22 00:48:37;;;;;;;5.68;1.45;;;20.30;91.40;;;;;;5027264;28;20028;-56
2023/09/22 00:51:03;;;;;;;5.28;1.38;;;20.30;91.40;;;;;;5042493;28;20030;-56
2023/09/22 00:53:31;;;;;;;5.32;1.20;;;20.30;91.50;;;;;;5059012;28;20030;-56
2023/09/22 00:55:56;;;;;;;5.78;1.30;;;20.30;91.50;;;;;;5058579;28;20041;-56
2023/09/22 00:58:22;;;;;;;3.75;1.48;;;20.30;91.40;;;;;;5042449;28;20030;-56
2023/09/22 01:00:48;;;;;;;5.85;1.15;;;20.20;91.50;;;;;;5058970;28;20026;-56
2023/09/22 01:03:14;;;;;;;2.20;1.02;;;20.30;91.50;;;;;;5025677;28;20413;-56
2023/09/22 01:05:40;;;;;;;5.20;0.93;;;20.20;91.50;;;;;;5058780;28;20045;-56
2023/09/22 01:08:05;;;;;;;6.35;1.67;;;20.20;91.50;;;;;;5058931;28;20030;-56
2023/09/22 01:10:35;;;;;;;6.10;1.40;;;20.20;91.50;;;;;;5027000;28;20351;-56
2023/09/22 01:13:01;;;;;;;4.32;1.13;;;20.10;91.50;;;;;;5058526;28;20065;-56
2023/09/22 01:15:27;;;;;;;2.83;1.30;;;20.20;91.50;;;;;;5058638;28;20075;-56
2023/09/22 01:17:53;;;;;;;7.47;1.30;;;20.10;91.60;;;;;;5058651;28;20034;-56
2023/09/22 01:20:18;;;;;;;8.23;1.17;;;20.10;91.50;;;;;;5026783;28;20026;-56
2023/09/22 01:22:44;;;;;;;3.88;1.33;;;20.10;91.50;;;;;;5026661;28;20046;-56
2023/09/22 01:25:09;;;;;;;3.03;1.15;;;20.10;91.50;;;;;;5058277;28;20034;-56
2023/09/22 01:27:35;;;;;;;4.72;1.10;;;20.10;91.50;;;;;;5058468;28;20033;-56
2023/09/22 01:30:04;;;;;;;3.88;1.30;;;20.10;91.50;;;;;;5058484;28;20061;-56
2023/09/22 01:32:30;;;;;;;5.85;1.35;;;20.00;91.50;;;;;;5057358;28;20030;-56
2023/09/22 01:34:58;;;;;;;4.10;1.10;;;20.00;91.50;;;;;;5026499;28;20036;-56
2023/09/22 01:37:28;;;;;;;3.20;1.08;;;20.00;91.60;;;;;;5057799;28;20033;-56
2023/09/22 01:39:57;;;;;;;3.55;1.08;;;20.00;91.50;;;;;;5057883;28;20034;-56
2023/09/22 01:42:23;;;;;;;3.45;0.88;;;20.00;91.60;;;;;;5058071;28;20109;-56
2023/09/22 01:44:48;;;;;;;4.22;1.30;;;20.00;91.60;;;;;;5026284;28;20033;-56
2023/09/22 01:47:14;;;;;;;5.85;1.30;;;20.00;91.60;;;;;;5041632;28;20052;-55
2023/09/22 01:49:39;;;;;;;5.35;1.10;;;20.00;91.60;;;;;;5041399;28;20049;-56
2023/09/22 01:52:05;;;;;;;4.63;1.05;;;19.90;91.60;;;;;;5026320;28;20034;-56
2023/09/22 01:54:30;;;;;;;2.47;1.20;;;19.90;91.60;;;;;;5058104;28;20063;-56
2023/09/22 01:56:56;;;;;;;10.30;1.60;;;19.90;91.60;;;;;;5041395;28;20119;-56
2023/09/22 01:59:22;;;;;;;10.07;1.67;;;19.90;91.60;;;;;;5026318;28;20030;-56
2023/09/22 02:01:48;;;;;;;3.58;1.70;;;19.90;91.60;;;;;;5041529;28;20030;-56
2023/09/22 02:04:13;;;;;;;3.28;1.65;;;19.90;91.60;;;;;;5062127;28;20033;-56
2023/09/22 02:06:39;;;;;;;4.10;1.40;;;19.80;91.60;;;;;;5062269;28;20030;-56
2023/09/22 02:09:05;;;;;;;6.53;1.80;;;19.80;91.60;;;;;;5062037;28;20026;-56
2023/09/22 02:11:31;;;;;;;4.32;1.52;;;19.80;91.60;;;;;;5062212;28;20057;-56
2023/09/22 02:13:57;;;;;;;3.45;1.65;;;19.80;91.70;;;;;;5030124;28;20089;-56
2023/09/22 02:16:22;;;;;;;2.47;1.70;;;19.80;91.60;;;;;;5045229;28;20029;-56
2023/09/22 02:18:48;;;;;;;2.58;1.83;;;19.80;91.70;;;;;;5029969;28;20112;-56
2023/09/22 02:21:16;;;;;;;4.32;1.55;;;19.80;91.70;;;;;;5061953;28;20034;-56
2023/09/22 02:23:41;;;;;;;8.48;1.77;;;19.80;91.70;;;;;;5028365;28;20025;-56
2023/09/22 02:26:07;;;;;;;5.78;2.22;;;19.70;91.60;;;;;;5061836;28;20044;-56
2023/09/22 02:28:33;;;;;;;3.90;2.45;;;19.70;91.70;;;;;;5045273;28;20022;-56
2023/09/22 02:30:58;;;;;;;7.05;2.80;;;19.70;91.70;;;;;;5030056;28;20018;-56
2023/09/22 02:33:24;;;;;;;7.00;2.92;;;19.70;91.70;;;;;;5045010;28;20042;-56
2023/09/22 02:35:50;;;;;;;8.65;2.90;;;19.70;91.70;;;;;;5061611;28;20056;-56
2023/09/22 02:38:15;;;;;;;4.40;2.17;;;19.70;91.70;;;;;;5029799;28;20094;-56
2023/09/22 02:40:41;;;;;;;3.17;2.30;;;19.70;91.70;;;;;;5061438;28;20076;-56
2023/09/22 02:43:07;;;;;;;6.50;2.55;;;19.70;91.80;;;;;;5061601;28;20482;-56
2023/09/22 02:45:36;;;;;;;5.93;2.47;;;19.70;91.80;;;;;;5044850;28;20025;-56
2023/09/22 02:48:02;;;;;;;4.20;2.35;;;19.70;91.80;;;;;;5044347;28;20053;-56
2023/09/22 02:50:28;;;;;;;3.15;2.33;;;19.70;91.80;;;;;;5029565;28;20488;-56
2023/09/22 02:52:53;;;;;;;7.85;2.67;;;19.70;91.80;;;;;;5029674;28;20030;-56
2023/09/22 02:55:19;;;;;;;4.38;2.78;;;19.70;91.80;;;;;;5044560;28;20029;-56
2023/09/22 02:57:47;;;;;;;5.88;2.95;;;19.70;91.90;;;;;;5029584;28;20054;-56
2023/09/22 03:00:14;;;;;;;4.70;2.88;;;19.70;91.90;;;;;;5060505;28;20092;-56
2023/09/22 03:02:40;;;;;;;4.57;2.95;;;19.70;91.90;;;;;;5029169;28;20038;-56
2023/09/22 03:05:09;;;;;;;7.00;3.38;;;19.70;91.90;;;;;;5061243;28;20045;-56
2023/09/22 03:07:35;;;;;;;6.63;3.30;;;19.70;91.90;;;;;;5044257;28;20102;-56
2023/09/22 03:10:00;;;;;;;8.57;3.40;;;19.70;91.90;;;;;;5044604;28;20018;-56
2023/09/22 03:12:26;;;;;;;3.63;2.65;;;19.70;92.00;;;;;;5027974;28;20037;-56
2023/09/22 03:14:52;;;;;;;3.33;2.50;;;19.70;91.90;;;;;;5060808;28;20030;-56
2023/09/22 03:17:18;;;;;;;5.30;3.25;;;19.70;92.20;;;;;;5060889;28;20105;-56
2023/09/22 03:19:44;;;;;;;7.05;4.60;;;19.70;92.00;;;;;;5060812;28;20044;-56
2023/09/22 03:22:09;;;;;;;6.30;4.80;;;19.60;92.00;;;;;;5043990;28;20101;-56
2023/09/22 03:24:35;;;;;;;6.05;4.50;;;19.60;92.00;;;;;;5028909;28;20034;-56
2023/09/22 03:27:01;;;;;;;4.45;3.83;;;19.60;92.00;;;;;;5043982;28;20033;-56
2023/09/22 03:29:27;;;;;;;4.20;3.80;;;19.70;92.10;;;;;;5028867;28;20026;-56
2023/09/22 03:31:52;;;;;;;5.97;4.00;;;19.60;92.30;;;;;;5060429;28;20022;-56
2023/09/22 03:34:18;;;;;;;10.35;3.75;;;19.60;92.00;;;;;;5028785;28;20054;-55
2023/09/22 03:36:44;;;;;;;5.32;3.30;;;19.60;92.00;;;;;;5060446;28;20100;-56
2023/09/22 03:39:12;;;;;;;6.22;3.47;;;19.60;92.10;;;;;;5028562;28;20034;-56
2023/09/22 03:41:38;;;;;;;4.75;3.63;;;19.60;92.10;;;;;;5059808;28;20030;-56
2023/09/22 03:44:04;;;;;;;7.10;3.75;;;19.60;92.20;;;;;;5059946;28;20049;-56
2023/09/22 03:46:30;;;;;;;8.02;3.95;;;19.60;92.20;;;;;;5028605;28;20026;-55
2023/09/22 03:48:55;;;;;;;8.18;3.53;;;19.60;92.20;;;;;;5028310;28;20038;-55
2023/09/22 03:51:21;;;;;;;6.22;3.08;;;19.60;92.20;;;;;;5060441;28;20105;-56
2023/09/22 03:53:47;;;;;;;22.23;4.40;;;19.50;92.20;;;;;;5043425;28;20390;-56
2023/09/22 03:56:12;;;;;;;5.95;3.47;;;19.50;92.20;;;;;;5028366;28;20052;-56
2023/09/22 03:58:38;;;;;;;7.30;3.22;;;19.50;92.20;;;;;;5060247;28;20105;-56
2023/09/22 04:01:07;;;;;;;6.13;3.10;;;19.50;92.30;;;;;;5028432;28;20041;-56
2023/09/22 04:03:32;;;;;;;5.85;3.47;;;19.50;92.30;;;;;;5027818;28;20474;-56
2023/09/22 04:05:58;;;;;;;6.22;3.17;;;19.50;92.30;;;;;;5059924;28;20033;-56
2023/09/22 04:08:24;;;;;;;6.82;3.40;;;19.50;92.30;;;;;;5043356;28;20036;-56
2023/09/22 04:10:50;;;;;;;5.70;3.67;;;19.50;92.30;;;;;;5060003;28;20109;-56
2023/09/22 04:13:15;;;;;;;6.28;4.05;;;19.50;92.20;;;;;;5059918;28;20060;-56
2023/09/22 04:15:41;;;;;;;7.05;3.92;;;19.40;92.20;;;;;;5026561;28;20058;-55
2023/09/22 04:18:07;;;;;;;5.70;3.85;;;19.40;92.20;;;;;;5043209;28;20022;-56
2023/09/22 04:20:37;;;;;;;5.68;4.03;;;19.40;92.20;;;;;;5059698;28;20550;-56
2023/09/22 04:23:04;;;;;;;13.50;3.88;;;19.40;92.20;;;;;;5058567;28;20030;-55
2023/09/22 04:25:34;;;;;;;7.78;3.15;;;19.40;92.20;;;;;;5058686;28;20080;-56
2023/09/22 04:28:08;;;;;;;8.50;3.92;;;19.40;92.30;;;;;;5058810;28;20022;-56
2023/09/22 04:30:38;;;;;;;9.33;3.50;;;19.40;92.30;;;;;;5026472;28;20049;-56
2023/09/22 04:33:04;;;;;;;11.32;4.18;;;19.30;92.30;;;;;;5059637;28;20454;-56
2023/09/22 04:35:32;;;;;;;12.43;4.40;;;19.30;92.30;;;;;;5059347;28;20026;-56
2023/09/22 04:37:59;;;;;;;19.08;5.35;;;19.30;92.30;;;;;;5058959;28;20092;-56
2023/09/22 04:40:24;;;;;;;21.45;6.90;;;19.30;92.30;;;;;;5059397;28;20041;-56
2023/09/22 04:42:51;;;;;;;17.65;6.43;;;19.30;92.30;;;;;;5027486;28;20038;-56
2023/09/22 04:45:21;;;;;;;35.25;6.20;;;19.30;92.30;;;;;;5059215;28;20022;-56
2023/09/22 04:47:47;;;;;;;30.38;6.78;;;19.30;92.40;;;;;;5027340;28;20036;-56
2023/09/22 04:50:16;;;;;;;41.08;7.68;;;19.30;92.40;;;;;;5042482;28;20022;-56
2023/09/22 04:52:42;;;;;;;27.55;6.82;;;19.30;92.40;;;;;;5058492;28;20030;-56
2023/09/22 04:55:08;;;;;;;35.75;7.72;;;19.20;92.40;;;;;;5058950;28;20037;-56
2023/09/22 04:57:33;;;;;;;48.60;8.70;;;19.30;92.40;;;;;;5058878;28;20049;-56
2023/09/22 04:59:59;;;;;;;63.05;8.65;;;19.20;92.40;;;;;;5025775;28;20034;-56
2023/09/22 05:02:25;;;;;;;44.22;8.68;;;19.30;92.50;;;;;;5058745;28;20097;-56
2023/09/22 05:04:50;;;;;;;35.80;8.10;;;19.20;92.50;;;;;;5042188;28;20041;-56
2023/09/22 05:07:16;;;;;;;36.50;7.05;;;19.30;92.50;;;;;;5058570;28;20022;-56
2023/09/22 05:09:43;;;;;;;33.17;6.57;;;19.20;92.50;;;;;;5027134;28;20025;-56
2023/09/22 05:12:09;;;;;;;37.60;7.18;;;19.20;92.50;;;;;;5026451;28;20050;-55
2023/09/22 05:14:35;;;;;;;28.75;6.57;;;19.20;92.60;;;;;;5025328;28;20037;-56
2023/09/22 05:17:00;;;;;;;33.28;7.45;;;19.20;92.60;;;;;;5058656;28;20057;-55
2023/09/22 05:19:26;;;;;;;35.72;7.93;;;19.20;92.90;;;;;;5026543;28;20036;-56
2023/09/22 05:21:52;;;;;;;39.40;7.18;;;19.20;92.60;;;;;;5026402;28;20034;-56
2023/09/22 05:24:17;;;;;;;39.67;7.20;;;19.20;92.70;;;;;;5058414;28;20045;-55
2023/09/22 05:26:43;;;;;;;45.38;8.43;;;19.20;92.70;;;;;;5026630;28;20022;-56
2023/09/22 05:29:08;;;;;;;39.75;7.28;;;19.20;92.70;;;;;;5025227;28;20026;-55
2023/09/22 05:31:36;;;;;;;36.85;7.05;;;19.10;92.70;;;;;;5026622;28;20030;-56
2023/09/22 05:34:02;;;;;;;40.28;7.75;;;19.20;92.80;;;;;;5026408;28;20028;-55
2023/09/22 05:36:29;;;;;;;44.50;8.13;;;19.10;92.80;;;;;;5024475;28;20072;-55
2023/09/22 05:38:58;;;;;;;31.58;7.65;;;19.10;92.80;;;;;;5057875;28;20034;-55
2023/09/22 05:41:24;;;;;;;42.90;7.90;;;19.20;92.80;;;;;;5026760;28;20041;-56
2023/09/22 05:43:49;;;;;;;22.17;6.80;;;19.10;92.80;;;;;;5058241;28;20109;-56
2023/09/22 05:46:15;;;;;;;32.40;6.68;;;19.10;92.90;;;;;;5041428;28;20478;-55
2023/09/22 05:48:40;;;;;;;29.63;6.72;;;19.10;93.00;;;;;;5058033;28;20022;-55
2023/09/22 05:51:06;;;;;;;44.10;8.00;;;19.10;93.00;;;;;;5026415;28;20526;-56
2023/09/22 05:53:32;;;;;;;34.92;7.13;;;19.10;93.10;;;;;;5058252;28;20434;-55
2023/09/22 05:56:11;;;;;;;33.08;6.28;;;19.10;93.10;;;;;;5027360;28;20033;-56
2023/09/22 05:58:37;;;;;;;28.80;6.63;;;19.10;93.10;;;;;;5041411;28;20496;-58
2023/09/22 06:01:07;;;;;;;38.00;7.72;;;19.10;93.10;;;;;;5041321;28;20037;-56
2023/09/22 06:03:34;;;;;;;23.10;5.95;;;19.10;93.20;;;;;;5041410;28;20026;-56
2023/09/22 06:06:08;;;;;;;28.48;5.90;;;19.10;93.20;;;;;;5024802;28;20093;-56
2023/09/22 06:08:36;;;;;;;20.35;5.28;;;19.00;93.20;;;;;;5041412;28;20033;-56
2023/09/22 06:11:02;;;;;;;26.30;5.60;;;19.00;93.30;;;;;;5025043;28;20041;-56
2023/09/22 06:13:27;;;;;;;24.27;5.13;;;19.00;93.50;;;;;;5040103;28;20030;-56
2023/09/22 06:15:53;;;;;;;27.67;4.60;;;18.90;93.60;;;;;;5024255;28;20094;-56
2023/09/22 06:18:22;;;;;;;22.95;5.03;;;18.90;93.70;;;;;;5024113;28;20030;-56
2023/09/22 06:20:55;;;;;;;17.45;4.50;;;18.90;93.80;;;;;;5023998;28;20033;-56
2023/09/22 06:23:21;;;;;;;19.27;4.78;;;18.90;93.80;;;;;;5039154;28;20469;-56
2023/09/22 06:25:47;;;;;;;19.30;4.63;;;18.90;93.90;;;;;;5039029;28;20034;-56
2023/09/22 06:28:15;;;;;;;15.00;4.53;;;18.80;93.80;;;;;;5024727;28;20026;-56
2023/09/22 06:30:41;;;;;;;14.77;4.07;;;18.80;93.80;;;;;;5026038;28;20050;-56
2023/09/22 06:33:07;;;;;;;18.58;3.65;;;18.80;93.80;;;;;;5024556;28;20052;-56
2023/09/22 06:35:32;;;;;;;14.90;4.15;;;18.80;93.80;;;;;;5041072;28;20030;-56
2023/09/22 06:37:58;;;;;;;11.98;3.70;;;18.80;93.80;;;;;;5024655;28;20037;-56
2023/09/22 06:40:24;;;;;;;13.18;3.95;;;18.70;93.80;;;;;;5040961;28;20064;-56
2023/09/22 06:42:49;;;;;;;18.77;3.58;;;18.80;93.90;;;;;;5040940;28;20030;-56
2023/09/22 06:45:16;;;;;;;23.33;4.20;;;18.70;93.80;;;;;;5040716;28;20025;-56
2023/09/22 06:47:41;;;;;;;18.52;3.78;;;18.70;93.80;;;;;;5040690;28;20046;-56
2023/09/22 06:50:09;;;;;;;11.85;3.25;;;18.70;94.10;;;;;;5026968;28;20022;-56
2023/09/22 06:52:41;;;;;;;14.50;3.10;;;18.70;93.80;;;;;;5046936;28;20319;-56
2023/09/22 06:55:13;;;;;;;16.65;3.20;;;18.70;93.80;;;;;;5047526;28;20037;-56
2023/09/22 06:57:42;;;;;;;25.75;4.97;;;18.70;93.80;;;;;;5047385;28;20095;-56
2023/09/22 07:00:15;;;;;;;15.23;3.58;;;18.70;93.90;;;;;;5046219;28;20025;-55
2023/09/22 07:02:43;;;;;;;16.17;3.80;;;18.70;93.80;;;;;;5032063;28;20049;-57
2023/09/22 07:05:09;;;;;;;17.83;3.67;;;18.70;93.80;;;;;;5047556;28;20045;-55
2023/09/22 07:07:37;;;;;;;19.98;4.10;;;18.70;93.80;;;;;;5047608;28;20025;-56
2023/09/22 07:10:04;;;;;;;15.00;3.75;;;18.70;93.80;;;;;;5047587;28;20022;-56
2023/09/22 07:12:30;;;;;;;24.23;3.97;;;18.70;93.80;;;;;;5046988;28;20056;-57
2023/09/22 07:14:56;;;;;;;21.02;3.92;;;18.70;93.80;;;;;;5040855;28;20022;-56
2023/09/22 07:17:21;;;;;;;29.25;4.65;;;18.70;93.80;;;;;;5028918;28;20030;-56
2023/09/22 07:19:47;;;;;;;26.08;4.40;;;18.70;93.80;;;;;;5027613;28;20094;-56
2023/09/22 07:22:13;;;;;;;33.10;4.90;;;18.70;93.70;;;;;;5011242;28;20529;-56
2023/09/22 07:24:38;;;;;;;27.17;4.97;;;18.70;93.70;;;;;;5028489;28;20030;-56
2023/09/22 07:27:05;;;;;;;39.75;5.28;;;18.70;93.70;;;;;;5028520;28;20033;-56
2023/09/22 07:29:32;;;;;;;32.20;5.10;;;18.70;93.70;;;;;;5034576;28;20037;-56
2023/09/22 07:31:57;;;;;;;36.17;6.05;;;18.70;93.80;;;;;;5008991;28;20053;-56
2023/09/22 07:34:23;;;;;;;36.15;5.60;;;18.70;93.80;;;;;;5039393;28;20022;-56
2023/09/22 07:36:49;;;;;;;39.10;5.82;;;18.70;93.90;;;;;;5016560;28;20054;-56
2023/09/22 07:39:14;;;;;;;51.70;6.85;;;18.70;94.00;;;;;;5023789;28;20042;-56
2023/09/22 07:41:40;;;;;;;67.40;7.03;;;18.70;94.00;;;;;;5054147;28;20060;-56
2023/09/22 07:44:05;;;;;;;59.88;7.07;;;18.70;94.00;;;;;;5028021;28;20041;-56
2023/09/22 07:46:31;;;;;;;62.42;8.00;;;18.70;94.10;;;;;;5025564;28;20486;-56
2023/09/22 07:48:56;;;;;;;49.83;8.85;;;18.60;94.10;;;;;;5013259;28;20049;-56
2023/09/22 07:51:22;;;;;;;56.97;8.88;;;18.70;94.10;;;;;;5016619;28;20081;-56
2023/09/22 07:53:48;;;;;;;49.90;8.32;;;18.70;94.10;;;;;;5039514;28;20034;-56
2023/09/22 07:56:16;;;;;;;54.92;7.95;;;18.70;94.00;;;;;;5031889;28;20037;-56
2023/09/22 07:58:41;;;;;;;46.42;7.45;;;18.70;93.90;;;;;;5033242;28;20022;-56
2023/09/22 08:01:12;;;;;;;56.97;8.13;;;18.80;93.90;;;;;;5034211;28;20053;-56
2023/09/22 08:03:38;;;;;;;54.47;8.40;;;18.70;93.90;;;;;;5012650;28;20034;-56
2023/09/22 08:06:05;;;;;;;61.20;8.70;;;18.80;93.90;;;;;;5018709;28;20034;-56
2023/09/22 08:08:31;;;;;;;69.35;8.43;;;18.80;94.00;;;;;;5015927;28;20014;-55
2023/09/22 08:10:58;;;;;;;72.70;9.00;;;18.80;94.00;;;;;;5018301;28;20038;-56
2023/09/22 08:13:24;;;;;;;66.32;8.75;;;18.80;94.00;;;;;;5014449;28;20129;-56
2023/09/22 08:15:49;;;;;;;82.45;11.55;;;18.80;94.00;;;;;;5027662;28;20021;-56
2023/09/22 08:18:15;;;;;;;89.95;12.50;;;18.80;94.00;;;;;;5009662;28;20053;-56
2023/09/22 08:20:41;;;;;;;97.15;13.60;;;18.80;94.00;;;;;;5027497;28;20053;-56
2023/09/22 08:23:07;;;;;;;126.50;14.10;;;18.90;94.00;;;;;;5024550;28;20491;-56
2023/09/22 08:25:32;;;;;;;155.93;17.27;;;18.80;94.00;;;;;;5025584;28;20037;-56
2023/09/22 08:27:58;;;;;;;123.85;13.93;;;18.90;94.00;;;;;;5025728;28;20129;-56
2023/09/22 08:30:25;;;;;;;88.38;11.98;;;18.90;94.10;;;;;;5009546;28;20081;-56
2023/09/22 08:32:50;;;;;;;127.57;15.18;;;18.90;94.10;;;;;;5027048;28;20037;-55
2023/09/22 08:35:16;;;;;;;113.63;14.82;;;18.90;94.00;;;;;;5008775;28;20022;-56
2023/09/22 08:37:42;;;;;;;120.00;15.90;;;19.00;94.10;;;;;;5025094;28;20065;-56
2023/09/22 08:40:14;;;;;;;133.88;17.15;;;19.00;94.10;;;;;;5025649;28;20257;-56
2023/09/22 08:42:40;;;;;;;114.45;14.75;;;19.00;94.10;;;;;;5007940;28;20034;-56
2023/09/22 08:45:06;;;;;;;116.50;15.13;;;19.00;94.10;;;;;;5004738;28;20018;-56
2023/09/22 08:47:33;;;;;;;125.82;15.98;;;19.00;94.10;;;;;;5023496;28;20029;-56
2023/09/22 08:49:59;;;;;;;119.63;14.05;;;19.00;94.10;;;;;;5025389;28;20030;-56
2023/09/22 08:52:24;;;;;;;133.45;16.30;;;19.00;94.20;;;;;;5029883;28;20045;-55
2023/09/22 08:54:50;;;;;;;110.13;14.52;;;19.10;94.20;;;;;;5025448;28;20093;-55
2023/09/22 08:57:16;;;;;;;117.57;14.00;;;19.10;94.30;;;;;;5026626;28;20029;-56
2023/09/22 08:59:43;;;;;;;126.78;16.90;;;19.00;94.20;;;;;;5040004;28;20030;-56
2023/09/22 09:02:08;;;;;;;116.05;17.30;;;19.10;94.50;;;;;;5039709;28;20038;-56
2023/09/22 09:04:39;;;;;;;146.32;18.05;;;19.10;94.20;;;;;;5041949;28;20037;-55
2023/09/22 09:07:05;;;;;;;127.82;17.35;;;19.10;94.20;;;;;;5041514;28;20030;-56
2023/09/22 09:09:44;;;;;;;138.85;15.00;;;19.10;94.30;;;;;;5026296;28;20050;-55
2023/09/22 09:12:10;;;;;;;120.13;14.68;;;19.20;94.40;;;;;;5041780;28;20045;-55
2023/09/22 09:14:40;;;;;;;147.60;17.67;;;19.20;94.70;;;;;;5026425;28;20026;-55
2023/09/22 09:17:31;;;;;;;134.65;17.42;;;19.20;94.70;;;;;;5025219;28;20045;-55
2023/09/22 09:20:02;;;;;;;144.35;16.73;;;19.20;94.90;;;;;;5023750;28;20096;-55
2023/09/22 09:22:32;;;;;;;142.55;15.27;;;19.20;94.90;;;;;;5026402;28;20026;-55
2023/09/22 09:25:01;;;;;;;110.45;15.00;;;19.20;94.80;;;;;;5025238;28;20026;-55
2023/09/22 09:27:27;;;;;;;117.03;15.30;;;19.20;94.70;;;;;;5025182;28;20105;-55
2023/09/22 09:29:55;;;;;;;207.85;23.23;;;19.30;94.60;;;;;;5025139;28;20103;-55
2023/09/22 09:32:29;;;;;;;136.55;17.13;;;19.30;94.60;;;;;;5041179;28;20029;-55
2023/09/22 09:34:55;;;;;;;128.50;17.00;;;19.30;94.60;;;;;;5025106;28;20301;-55
2023/09/22 09:37:21;;;;;;;130.18;17.75;;;19.30;94.50;;;;;;5024951;28;20465;-55
2023/09/22 09:39:48;;;;;;;102.05;14.77;;;19.30;94.50;;;;;;5024818;28;20038;-55
2023/09/22 09:42:18;;;;;;;93.75;12.98;;;19.30;94.40;;;;;;5024740;28;20096;-55
2023/09/22 09:45:04;;;;;;;106.82;14.32;;;19.30;94.50;;;;;;5024783;28;20030;-55
2023/09/22 09:47:32;;;;;;;;;;;19.30;94.40;;;;;;5024734;28;20038;-55
2023/09/22 09:49:58;;;;;;;94.55;12.73;;;19.40;94.30;;;;;;5024478;28;19915;-55
2023/09/22 09:52:39;;;;;;;93.10;12.60;;;19.40;94.20;;;;;;5041284;28;20207;-55
2023/09/22 09:55:09;;;;;;;80.20;12.52;;;19.40;94.10;;;;;;5042099;28;20083;-55
2023/09/22 09:57:38;;;;;;;74.90;11.35;;;19.40;94.00;;;;;;5024512;28;20030;-54
2023/09/22 10:00:13;;;;;;;111.75;13.70;;;19.40;93.90;;;;;;5024437;28;20079;-55
2023/09/22 10:02:45;;;;;;;66.13;11.15;;;19.40;93.80;;;;;;5024392;28;20033;-55
2023/09/22 10:05:15;;;;;;;96.45;12.20;;;19.50;93.80;;;;;;5040666;28;20049;-55
2023/09/22 10:07:43;;;;;;;82.00;11.57;;;19.50;93.70;;;;;;5020255;28;20027;-55
2023/09/22 10:10:08;;;;;;;80.38;11.50;;;19.50;93.70;;;;;;5017595;28;20022;-55
2023/09/22 10:12:34;;;;;;;86.97;12.02;;;19.60;93.80;;;;;;5007897;28;20053;-55
2023/09/22 10:15:04;;;;;;;80.20;11.43;;;19.60;93.70;;;;;;5008502;28;20030;-54
2023/09/22 10:17:30;;;;;;;86.00;11.70;;;19.60;93.70;;;;;;5024702;28;20029;-55
2023/09/22 10:19:56;;;;;;;56.33;10.75;;;19.50;93.60;;;;;;5007107;28;20030;-55
2023/09/22 10:22:22;;;;;;;78.70;10.25;;;19.60;93.60;;;;;;5024158;28;20093;-55
2023/09/22 10:25:13;;;;;;;75.85;10.82;;;19.60;93.60;;;;;;5026706;28;20033;-55
2023/09/22 10:27:58;;;;;;;81.15;10.80;;;19.60;93.50;;;;;;5027955;28;20036;-55
2023/09/22 10:30:30;;;;;;;88.53;12.50;;;19.70;93.50;;;;;;5045383;28;20029;-55
2023/09/22 10:33:21;;;;;;;105.35;12.45;;;19.70;93.30;;;;;;5028395;28;20030;-55
2023/09/22 10:35:47;;;;;;;89.55;13.07;;;19.70;93.10;;;;;;5028258;28;20026;-56
2023/09/22 10:38:14;;;;;;;107.45;12.88;;;19.70;93.40;;;;;;5027876;28;20036;-55
2023/09/22 10:41:01;;;;;;;124.68;13.45;;;19.70;93.00;;;;;;5027091;28;20046;-55
2023/09/22 10:43:27;;;;;;;163.88;15.75;;;19.70;92.90;;;;;;5011723;28;20478;-55
2023/09/22 10:45:53;;;;;;;78.88;12.40;;;19.70;92.80;;;;;;5043652;28;20052;-54
2023/09/22 10:48:18;;;;;;;101.03;11.45;;;19.70;92.70;;;;;;5026984;28;20026;-55
2023/09/22 10:50:51;;;;;;;85.53;11.38;;;19.70;92.60;;;;;;5055268;28;20044;-55
2023/09/22 10:53:16;;;;;;;80.90;10.90;;;19.70;92.60;;;;;;5008673;28;20049;-55
2023/09/22 10:55:43;;;;;;;97.72;12.15;;;19.70;92.50;;;;;;5011030;28;20049;-55
2023/09/22 10:58:21;;;;;;;111.13;11.18;;;19.70;92.30;;;;;;5020965;28;20067;-55
2023/09/22 11:01:00;;;;;;;92.88;11.82;;;19.80;92.20;;;;;;5009847;28;20037;-55
2023/09/22 11:03:26;;;;;;;101.82;11.43;;;19.70;92.00;;;;;;5005826;28;20029;-55
2023/09/22 11:06:06;;;;;;;91.28;11.68;;;19.80;91.90;;;;;;5038542;28;20450;-55
2023/09/22 11:08:32;;;;;;;99.68;12.48;;;19.80;91.70;;;;;;5026022;28;20030;-55
2023/09/22 11:10:57;;;;;;;113.68;12.75;;;19.80;91.60;;;;;;5039520;28;20022;-55
2023/09/22 11:13:23;;;;;;;109.70;11.82;;;19.80;91.50;;;;;;5024935;28;20026;-55
2023/09/22 11:15:56;;;;;;;82.75;11.00;;;19.80;91.40;;;;;;5024385;28;20030;-55
2023/09/22 11:18:35;;;;;;;81.95;8.90;;;19.80;91.40;;;;;;5053023;28;20034;-55
2023/09/22 11:21:10;;;;;;;94.03;10.70;;;19.90;91.20;;;;;;5037318;28;20096;-55
2023/09/22 11:23:36;;;;;;;53.08;8.60;;;19.90;91.00;;;;;;5039354;28;20072;-55
2023/09/22 11:26:06;;;;;;;67.45;8.85;;;19.90;90.90;;;;;;4996590;28;20038;-55
2023/09/22 11:28:32;;;;;;;59.75;7.55;;;19.90;90.70;;;;;;5005861;28;20511;-55
2023/09/22 11:31:08;;;;;;;82.93;10.40;;;19.90;90.50;;;;;;5040109;28;20037;-55
2023/09/22 11:33:36;;;;;;;65.60;8.35;;;19.90;90.40;;;;;;5025918;28;20038;-55
2023/09/22 11:36:02;;;;;;;56.53;7.40;;;19.90;90.40;;;;;;5025524;28;20042;-55
2023/09/22 11:38:28;;;;;;;58.25;7.00;;;19.90;90.30;;;;;;5026595;28;20037;-54
2023/09/22 11:41:10;;;;;;;55.90;7.90;;;19.90;90.20;;;;;;5026548;28;20069;-55
2023/09/22 11:43:56;;;;;;;60.92;7.53;;;20.00;90.20;;;;;;5022608;28;20038;-55
2023/09/22 11:46:28;;;;;;;60.80;6.57;;;19.90;90.00;;;;;;5026510;28;20050;-55
2023/09/22 11:49:07;;;;;;;58.78;6.90;;;20.00;90.00;;;;;;5006345;28;20034;-54
2023/09/22 11:51:52;;;;;;;40.38;6.18;;;20.00;89.70;;;;;;5035581;28;20133;-55
2023/09/22 11:54:24;;;;;;;53.75;6.43;;;20.00;89.60;;;;;;5022371;28;20105;-55
2023/09/22 11:57:00;;;;;;;66.65;7.70;;;20.10;89.50;;;;;;5036912;28;20033;-55
2023/09/22 11:59:34;;;;;;;54.25;7.05;;;20.10;89.20;;;;;;5000192;28;20081;-55
2023/09/22 12:02:06;;;;;;;50.08;6.85;;;20.10;89.10;;;;;;5037589;28;20034;-55
2023/09/22 12:04:32;;;;;;;64.25;8.02;;;20.10;89.10;;;;;;5020382;28;20029;-55
2023/09/22 12:06:57;;;;;;;54.08;7.60;;;20.10;89.10;;;;;;5049616;28;20026;-55
2023/09/22 12:09:23;;;;;;;69.88;9.10;;;20.10;89.20;;;;;;5032331;28;20388;-55
2023/09/22 12:11:49;;;;;;;96.30;10.52;;;20.10;89.20;;;;;;5023493;28;20428;-55
2023/09/22 12:14:14;;;;;;;71.78;9.07;;;20.10;88.10;;;;;;5035941;28;20061;-55
2023/09/22 12:16:40;;;;;;;67.68;9.35;;;20.20;87.60;;;;;;5023574;28;20026;-55
2023/09/22 12:19:05;;;;;;;70.25;9.70;;;20.20;87.40;;;;;;5021184;28;20540;-56
2023/09/22 12:21:31;;;;;;;75.95;8.85;;;20.10;87.50;;;;;;5024991;28;20501;-55
2023/09/22 12:23:57;;;;;;;128.02;14.85;;;20.20;87.70;;;;;;5024619;28;20030;-56
2023/09/22 12:26:23;;;;;;;83.05;9.30;;;20.10;88.60;;;;;;5023667;28;20089;-55
2023/09/22 12:28:51;;;;;;;87.25;12.00;;;20.10;88.40;;;;;;5053696;28;20026;-55
2023/09/22 12:31:18;;;;;;;75.50;10.18;;;20.10;88.60;;;;;;5052578;28;20030;-55
2023/09/22 12:33:44;;;;;;;77.90;11.07;;;20.10;88.70;;;;;;5053583;28;20536;-55
2023/09/22 12:36:13;;;;;;;90.25;10.88;;;20.10;88.60;;;;;;5028665;28;20025;-55
2023/09/22 12:38:39;;;;;;;119.50;13.45;;;20.20;88.00;;;;;;5016809;28;20117;-55